Time;durP1;ratioP1;P1;durP2;ratioP2;P2;SDS_P1;SDS_P2;PMS_P1;PMS_P2;Temp;Humidity;BMP_temperature;BMP_pressure;BME280_temperature;BME280_humidity;BME280_pressure;Samples;Min_cycle;Max_cycle;Signal;HPM_P1;HPM_P2
2022/09/27 00:01:04;;;;;;;5.85;0.20;;;;;;;8.65;60.25;99262.09;5006328;28;20033;-71
2022/09/27 00:03:30;;;;;;;5.68;0.40;;;;;;;8.60;60.42;99268.50;5016150;28;20068;-68
2022/09/27 00:06:08;;;;;;;5.30;0.32;;;;;;;8.61;60.62;99267.59;5009628;28;20042;-68
2022/09/27 00:08:35;;;;;;;1.77;0.10;;;;;;;8.56;60.50;99263.47;5032489;28;20065;-68
2022/09/27 00:11:01;;;;;;;1.45;0.30;;;;;;;8.65;60.27;99266.47;5009086;28;20034;-69
2022/09/27 00:13:27;;;;;;;5.05;0.30;;;;;;;8.44;60.42;99269.38;5017088;28;20417;-65
2022/09/27 00:16:00;;;;;;;0.60;0.20;;;;;;;8.69;60.16;99267.97;5009742;28;20037;-66
2022/09/27 00:18:26;;;;;;;2.33;0.30;;;;;;;8.72;60.23;99263.47;5010787;28;20108;-67
2022/09/27 00:20:52;;;;;;;5.63;0.77;;;;;;;8.70;60.15;99260.06;5011159;28;20624;-67
2022/09/27 00:23:18;;;;;;;2.10;0.17;;;;;;;8.61;60.21;99268.41;5010638;28;20407;-67
2022/09/27 00:25:57;;;;;;;4.10;0.20;;;;;;;8.52;60.67;99264.56;5031009;28;20045;-67
2022/09/27 00:28:23;;;;;;;2.50;0.20;;;;;;;8.67;59.89;99262.00;5008334;28;20495;-67
2022/09/27 00:30:49;;;;;;;3.95;0.43;;;;;;;8.74;59.46;99252.97;5030521;28;20151;-67
2022/09/27 00:33:14;;;;;;;1.05;0.10;;;;;;;8.74;59.69;99250.34;5013366;28;20069;-66
2022/09/27 00:35:39;;;;;;;1.00;0.10;;;;;;;8.70;59.69;99246.22;5032074;28;20037;-65
2022/09/27 00:38:05;;;;;;;0.80;0.10;;;;;;;8.80;59.49;99252.56;5008316;28;20040;-66
2022/09/27 00:40:31;;;;;;;4.15;0.20;;;;;;;8.85;59.33;99253.16;4994743;28;20427;-65
2022/09/27 00:42:57;;;;;;;1.38;0.10;;;;;;;8.79;59.38;99247.47;4996077;28;20052;-65
2022/09/27 00:45:22;;;;;;;0.47;0.00;;;;;;;8.74;59.03;99242.53;5009816;28;20057;-66
2022/09/27 00:47:59;;;;;;;4.05;0.10;;;;;;;8.75;59.35;99241.59;5007565;28;20120;-66
2022/09/27 00:50:28;;;;;;;3.40;0.00;;;;;;;8.78;58.95;99241.41;5013865;28;20048;-65
2022/09/27 00:53:06;;;;;;;2.38;0.03;;;;;;;8.73;58.75;99241.69;5008557;28;20441;-66
2022/09/27 00:55:39;;;;;;;4.15;0.30;;;;;;;8.71;58.72;99229.69;5032072;28;20030;-66
2022/09/27 00:58:05;;;;;;;0.68;0.10;;;;;;;8.67;58.95;99243.78;5008399;28;20056;-68
2022/09/27 01:00:31;;;;;;;0.40;0.00;;;;;;;8.73;58.49;99243.44;5014634;28;20329;-68
2022/09/27 01:02:57;;;;;;;0.90;0.10;;;;;;;8.73;58.73;99238.25;5007873;28;20050;-67
2022/09/27 01:05:25;;;;;;;1.40;0.10;;;;;;;8.77;58.38;99237.16;5008472;28;20068;-71
2022/09/27 01:07:55;;;;;;;1.52;0.10;;;;;;;8.75;58.62;99233.78;5007809;28;20544;-70
2022/09/27 01:10:24;;;;;;;0.75;0.10;;;;;;;8.74;58.50;99234.72;5010817;28;20040;-70
2022/09/27 01:13:01;;;;;;;1.10;0.00;;;;;;;8.69;58.58;99240.13;5021380;28;20526;-69
2022/09/27 01:15:42;;;;;;;0.73;0.00;;;;;;;8.68;58.43;99229.84;5016878;28;20030;-70
2022/09/27 01:18:28;;;;;;;1.27;0.10;;;;;;;8.74;58.53;99237.34;5006997;28;20961;-70
2022/09/27 01:21:31;;;;;;;1.55;0.05;;;;;;;8.73;58.28;99236.47;5005840;28;20025;-70
2022/09/27 01:24:02;;;;;;;0.03;0.00;;;;;;;8.74;58.26;99232.94;5011111;28;20053;-70
2022/09/27 01:26:44;;;;;;;1.17;0.00;;;;;;;8.75;58.57;99228.56;5015231;28;20756;-69
2022/09/27 01:29:36;;;;;;;2.92;0.10;;;;;;;8.68;58.43;99235.88;5005525;28;20064;-69
2022/09/27 01:32:23;;;;;;;0.20;0.00;;;;;;;8.59;58.63;99239.00;5011494;28;20478;-70
2022/09/27 01:35:10;;;;;;;1.38;0.10;;;;;;;8.59;58.48;99241.63;5011564;28;20470;-70
2022/09/27 01:37:55;;;;;;;0.88;0.00;;;;;;;8.67;58.40;99238.56;5014009;28;20113;-70
2022/09/27 01:40:32;;;;;;;0.63;0.10;;;;;;;8.55;58.52;99235.75;5031224;28;20040;-64
2022/09/27 01:43:26;;;;;;;1.00;0.10;;;;;;;8.39;58.70;99237.56;4996642;28;20129;-63
2022/09/27 01:46:05;;;;;;;0.65;0.08;;;;;;;8.32;58.81;99238.84;5006038;28;20036;-71
2022/09/27 01:48:59;;;;;;;1.60;0.13;;;;;;;8.45;58.84;99244.16;5004890;28;20042;-68
2022/09/27 01:51:34;;;;;;;2.30;0.68;;;;;;;8.28;58.96;99242.53;4998113;28;20092;-68
2022/09/27 01:54:05;;;;;;;0.90;0.08;;;;;;;8.46;58.64;99251.91;5027958;28;20053;-65
2022/09/27 01:56:53;;;;;;;1.38;0.10;;;;;;;8.44;58.76;99243.34;5006712;28;20488;-65
2022/09/27 01:59:45;;;;;;;3.10;0.10;;;;;;;8.54;58.63;99259.28;5023732;28;20029;-66
2022/09/27 02:02:49;;;;;;;1.15;0.10;;;;;;;8.54;58.89;99252.31;4984998;28;20128;-65
2022/09/27 02:05:54;;;;;;;1.02;0.00;;;;;;;8.57;58.62;99253.88;5005688;28;20037;-65
2022/09/27 02:08:45;;;;;;;2.95;0.20;;;;;;;8.32;58.98;99239.66;5012425;28;20050;-65
2022/09/27 02:11:21;;;;;;;3.50;0.73;;;;;;;8.44;59.12;99234.69;5007045;28;20307;-65
2022/09/27 02:14:07;;;;;;;0.32;0.10;;;;;;;8.18;59.39;99231.78;5010081;28;20051;-65
2022/09/27 02:16:50;;;;;;;0.70;0.05;;;;;;;8.34;59.29;99234.38;5005309;28;20393;-65
2022/09/27 02:19:36;;;;;;;2.60;0.47;;;;;;;8.38;58.97;99237.63;5012793;28;20238;-65
2022/09/27 02:22:24;;;;;;;2.55;0.13;;;;;;;8.05;60.13;99230.81;5006862;28;20037;-65
2022/09/27 02:24:57;;;;;;;0.20;0.00;;;;;;;8.33;59.19;99230.91;5007451;28;20076;-66
2022/09/27 02:27:56;;;;;;;0.47;0.08;;;;;;;8.44;59.20;99227.72;5005438;28;20271;-65
2022/09/27 02:30:26;;;;;;;5.22;0.10;;;;;;;8.19;59.57;99227.44;5013266;28;20590;-65
2022/09/27 02:32:59;;;;;;;1.90;0.20;;;;;;;8.23;59.69;99223.75;5006177;28;20048;-66
2022/09/27 02:35:30;;;;;;;0.90;0.17;;;;;;;8.26;59.65;99236.56;5006299;28;20026;-67
2022/09/27 02:37:56;;;;;;;1.60;0.13;;;;;;;8.18;59.97;99233.56;5029946;28;20112;-68
2022/09/27 02:40:25;;;;;;;4.32;0.10;;;;;;;8.24;59.64;99261.84;5032779;28;20030;-69
2022/09/27 02:42:50;;;;;;;5.28;0.35;;;;;;;8.18;60.04;99251.78;5016801;28;20458;-69
2022/09/27 02:45:18;;;;;;;1.92;0.08;;;;;;;8.10;60.21;99255.66;4994450;28;20029;-67
2022/09/27 02:47:50;;;;;;;1.17;0.20;;;;;;;7.91;60.35;99252.38;5010683;28;20042;-67
2022/09/27 02:50:56;;;;;;;0.63;0.10;;;;;;;8.01;60.35;99245.75;5019921;28;20409;-67
2022/09/27 02:54:01;;;;;;;0.25;0.00;;;;;;;7.52;60.72;99240.56;4979689;28;20157;-70
2022/09/27 02:56:54;;;;;;;0.30;0.00;;;;;;;7.77;60.09;99247.09;5011127;28;20048;-70
2022/09/27 03:00:06;;;;;;;1.10;0.10;;;;;;;7.82;59.89;99243.31;5014680;28;20535;-70
2022/09/27 03:03:08;;;;;;;1.65;0.00;;;;;;;7.95;59.67;99243.47;5007609;28;20061;-70
2022/09/27 03:05:53;;;;;;;0.97;0.10;;;;;;;8.05;59.30;99247.25;5013259;28;20520;-70
2022/09/27 03:08:20;;;;;;;0.98;0.38;;;;;;;8.04;59.30;99247.34;5016623;28;20419;-70
2022/09/27 03:10:45;;;;;;;3.78;0.10;;;;;;;7.97;59.69;99239.03;5011706;28;20025;-70
2022/09/27 03:13:11;;;;;;;2.20;0.10;;;;;;;7.79;60.40;99232.25;5009143;28;20045;-68
2022/09/27 03:15:37;;;;;;;2.95;0.30;;;;;;;8.01;59.91;99237.94;5001023;28;20084;-67
2022/09/27 03:18:03;;;;;;;0.85;0.10;;;;;;;8.12;59.78;99239.97;5008250;28;20045;-68
2022/09/27 03:20:28;;;;;;;3.92;0.20;;;;;;;8.04;60.06;99240.38;5010973;28;20034;-68
2022/09/27 03:23:04;;;;;;;1.77;0.20;;;;;;;8.13;59.44;99241.63;5010681;28;20538;-68
2022/09/27 03:25:29;;;;;;;1.10;0.10;;;;;;;8.13;59.49;99237.25;5010656;28;20066;-68
2022/09/27 03:27:54;;;;;;;1.65;0.10;;;;;;;7.94;60.13;99239.22;5006056;28;20350;-67
2022/09/27 03:30:20;;;;;;;4.80;0.10;;;;;;;8.10;59.83;99234.81;5017284;28;20451;-68
2022/09/27 03:32:46;;;;;;;1.23;0.10;;;;;;;8.14;59.81;99236.34;5009766;28;20530;-67
2022/09/27 03:35:30;;;;;;;2.72;0.08;;;;;;;8.05;59.97;99236.84;5010727;28;20603;-67
2022/09/27 03:37:55;;;;;;;0.40;0.10;;;;;;;8.15;59.75;99232.78;5008940;28;20069;-67
2022/09/27 03:40:21;;;;;;;1.10;0.20;;;;;;;8.12;59.81;99232.97;5017847;28;20040;-67
2022/09/27 03:42:49;;;;;;;1.17;0.15;;;;;;;8.19;59.58;99230.03;5008005;28;20042;-68
2022/09/27 03:45:14;;;;;;;0.52;0.10;;;;;;;7.99;60.22;99237.19;5016349;28;20557;-68
2022/09/27 03:47:40;;;;;;;1.08;0.20;;;;;;;7.94;60.07;99245.25;5009230;28;20049;-68
2022/09/27 03:50:07;;;;;;;0.85;0.17;;;;;;;7.97;60.46;99251.22;5013476;28;21316;-69
2022/09/27 03:52:33;;;;;;;0.47;0.35;;;;;;;7.94;60.26;99234.00;5016736;28;20081;-68
2022/09/27 03:54:59;;;;;;;4.97;0.15;;;;;;;7.94;60.26;99244.41;4991863;28;20068;-67
2022/09/27 03:57:24;;;;;;;3.10;0.30;;;;;;;7.62;60.94;99239.19;5011326;28;20120;-68
2022/09/27 03:59:50;;;;;;;1.85;0.30;;;;;;;7.76;60.80;99237.59;5008972;28;20034;-67
2022/09/27 04:02:42;;;;;;;;;;;;;;;7.71;60.86;99237.84;5011159;28;20675;-70
2022/09/27 04:05:25;;;;;;;3.60;0.20;;;;;;;7.68;60.93;99232.81;5011837;28;19917;-70
2022/09/27 04:08:11;;;;;;;3.05;0.35;;;;;;;7.97;60.12;99239.03;5008749;28;20502;-66
2022/09/27 04:10:37;;;;;;;1.80;0.20;;;;;;;8.09;60.00;99235.75;5009189;28;20052;-68
2022/09/27 04:13:03;;;;;;;1.42;0.45;;;;;;;8.15;59.49;99235.41;5007974;28;20494;-69
2022/09/27 04:15:33;;;;;;;1.10;0.53;;;;;;;8.06;59.75;99232.47;5016334;28;20181;-68
2022/09/27 04:18:34;;;;;;;3.47;0.65;;;;;;;8.14;59.39;99231.13;4995536;28;20288;-67
2022/09/27 04:21:15;;;;;;;2.25;0.30;;;;;;;8.16;59.31;99223.25;5011561;28;20221;-68
2022/09/27 04:23:47;;;;;;;1.08;0.22;;;;;;;8.25;59.27;99221.88;5011684;28;20180;-67
2022/09/27 04:26:16;;;;;;;2.33;0.10;;;;;;;8.23;59.30;99227.19;5009778;28;20537;-68
2022/09/27 04:28:52;;;;;;;1.30;0.00;;;;;;;8.17;58.72;99224.09;4991727;28;20507;-68
2022/09/27 04:31:18;;;;;;;2.45;0.10;;;;;;;7.99;59.58;99226.78;4996555;28;20026;-67
2022/09/27 04:36:25;;;;;;;0.80;0.17;;;;;;;7.94;59.92;99228.81;5010319;28;20042;-66
2022/09/27 04:37:06;;;;;;;0.93;0.10;;;;;;;8.07;59.57;99218.53;5006890;28;20041;-66
2022/09/27 04:39:38;;;;;;;1.75;0.43;;;;;;;7.89;59.85;99223.84;5031258;28;20108;-68
2022/09/27 04:42:04;;;;;;;0.68;0.20;;;;;;;8.00;59.84;99223.25;5010757;28;20052;-66
2022/09/27 04:44:30;;;;;;;3.13;0.10;;;;;;;7.98;59.77;99225.13;5011752;28;20192;-66
2022/09/27 04:46:55;;;;;;;1.98;0.10;;;;;;;7.94;59.91;99228.81;5005876;28;20033;-66
2022/09/27 04:49:21;;;;;;;2.13;0.10;;;;;;;7.53;61.15;99224.03;5007246;28;20064;-65
2022/09/27 04:51:47;;;;;;;1.15;0.10;;;;;;;7.91;60.24;99234.16;5014892;28;20091;-67
2022/09/27 04:54:13;;;;;;;1.35;0.30;;;;;;;7.86;60.19;99234.41;5012356;28;21538;-68
2022/09/27 04:56:47;;;;;;;3.03;0.10;;;;;;;8.03;59.56;99237.88;5030889;28;20410;-67
2022/09/27 04:59:13;;;;;;;5.00;0.10;;;;;;;8.14;59.65;99244.16;5012994;28;21129;-68
2022/09/27 05:01:40;;;;;;;0.40;0.10;;;;;;;8.12;59.45;99232.97;5032315;28;20239;-68
2022/09/27 05:04:18;;;;;;;0.80;0.10;;;;;;;8.04;59.53;99240.38;5006905;28;20115;-67
2022/09/27 05:06:47;;;;;;;0.75;0.20;;;;;;;7.80;60.48;99237.38;5006570;28;20040;-65
2022/09/27 05:09:22;;;;;;;2.53;0.20;;;;;;;7.92;60.14;99246.25;5014374;28;20412;-65
2022/09/27 05:11:54;;;;;;;2.60;0.20;;;;;;;7.64;60.64;99246.91;5009342;28;20470;-70
2022/09/27 05:14:39;;;;;;;1.25;0.20;;;;;;;7.96;59.73;99252.97;5008681;28;20384;-69
2022/09/27 05:17:21;;;;;;;1.30;0.15;;;;;;;7.94;59.90;99262.63;4996634;28;20075;-68
2022/09/27 05:19:47;;;;;;;1.92;0.20;;;;;;;7.91;59.95;99257.56;5010257;28;20565;-66
2022/09/27 05:22:21;;;;;;;0.32;0.10;;;;;;;7.75;60.08;99249.75;5008476;28;20092;-67
2022/09/27 05:24:50;;;;;;;1.08;0.10;;;;;;;7.87;59.88;99243.06;5028412;28;20142;-70
2022/09/27 05:27:19;;;;;;;2.05;0.20;;;;;;;7.86;60.27;99241.38;5008032;28;20114;-68
2022/09/27 05:29:46;;;;;;;2.35;0.25;;;;;;;7.77;60.10;99242.72;5016268;28;20026;-66
2022/09/27 05:32:17;;;;;;;3.55;0.08;;;;;;;7.91;59.56;99250.63;5008929;28;20341;-69
2022/09/27 05:34:46;;;;;;;2.17;0.10;;;;;;;7.83;59.65;99246.75;5030732;28;20025;-69
2022/09/27 05:37:12;;;;;;;1.80;0.00;;;;;;;7.94;59.79;99250.44;5006080;28;20224;-69
2022/09/27 05:39:40;;;;;;;0.88;0.17;;;;;;;7.97;59.68;99252.03;5015232;28;20060;-70
2022/09/27 05:42:09;;;;;;;0.20;0.00;;;;;;;7.99;59.38;99258.00;5027053;28;20084;-67
2022/09/27 05:44:35;;;;;;;4.18;0.10;;;;;;;7.85;59.67;99250.97;5016537;28;20038;-66
2022/09/27 05:47:03;;;;;;;0.70;0.20;;;;;;;7.62;60.19;99243.53;4990447;28;20118;-68
2022/09/27 05:49:30;;;;;;;0.43;0.05;;;;;;;7.71;60.08;99245.66;5014696;28;20033;-69
2022/09/27 05:51:56;;;;;;;2.55;0.10;;;;;;;7.59;60.08;99259.31;5004721;28;20034;-68
2022/09/27 05:54:24;;;;;;;1.63;0.25;;;;;;;7.74;59.54;99253.31;5024165;28;20025;-68
2022/09/27 05:56:53;;;;;;;0.38;0.00;;;;;;;7.82;59.57;99255.47;5006226;28;20438;-68
2022/09/27 05:59:28;;;;;;;2.40;0.10;;;;;;;7.59;60.23;99270.56;5009064;28;20034;-68
2022/09/27 06:02:12;;;;;;;3.00;0.00;;;;;;;7.03;61.85;99262.16;5006048;28;20134;-69
2022/09/27 06:05:02;;;;;;;1.50;0.10;;;;;;;7.29;61.39;99262.59;4982353;28;20045;-68
2022/09/27 06:08:02;;;;;;;1.15;0.08;;;;;;;7.68;60.29;99275.25;5006040;28;20046;-68
2022/09/27 06:10:34;;;;;;;0.73;0.10;;;;;;;7.63;60.44;99273.84;5014650;28;20038;-66
2022/09/27 06:13:04;;;;;;;1.05;0.00;;;;;;;7.12;62.18;99271.25;5007374;28;20145;-66
2022/09/27 06:15:38;;;;;;;1.00;0.30;;;;;;;7.35;61.38;99277.84;5008082;28;20068;-65
2022/09/27 06:18:06;;;;;;;7.93;0.20;;;;;;;7.50;61.30;99271.84;5027350;28;20709;-65
2022/09/27 06:20:33;;;;;;;0.32;0.10;;;;;;;7.62;60.73;99275.56;4996938;28;20060;-67
2022/09/27 06:23:19;;;;;;;1.73;0.00;;;;;;;7.60;60.75;99276.59;5012594;28;20055;-66
2022/09/27 06:25:47;;;;;;;1.40;0.10;;;;;;;7.64;60.90;99267.72;5013292;28;20506;-69
2022/09/27 06:28:18;;;;;;;1.63;0.10;;;;;;;7.79;60.44;99258.25;5005591;28;20077;-69
2022/09/27 06:30:49;;;;;;;2.80;0.22;;;;;;;7.88;60.02;99265.56;5030215;28;20137;-68
2022/09/27 06:33:29;;;;;;;3.95;0.85;;;;;;;7.85;59.88;99270.94;5011580;28;20477;-66
2022/09/27 06:36:00;;;;;;;5.60;0.20;;;;;;;7.97;59.50;99275.44;4993440;28;20449;-65
2022/09/27 06:38:26;;;;;;;1.25;0.20;;;;;;;8.07;59.58;99276.66;4994160;28;20045;-66
2022/09/27 06:41:13;;;;;;;9.13;0.75;;;;;;;7.54;60.69;99298.53;4988275;28;20788;-67
2022/09/27 06:43:55;;;;;;;1.10;0.10;;;;;;;7.43;60.77;99291.28;5023591;28;20041;-68
2022/09/27 06:46:39;;;;;;;2.53;0.20;;;;;;;7.53;60.34;99297.69;5008285;28;20125;-67
2022/09/27 06:49:24;;;;;;;1.45;0.08;;;;;;;7.64;60.29;99302.34;5011048;28;20649;-68
2022/09/27 06:51:51;;;;;;;3.10;0.13;;;;;;;7.91;59.55;99313.06;5006015;28;20034;-67
2022/09/27 06:54:17;;;;;;;0.20;0.00;;;;;;;7.71;59.88;99310.66;4997606;28;20335;-69
2022/09/27 06:56:46;;;;;;;3.10;0.10;;;;;;;7.82;59.83;99313.53;5005548;28;20030;-68
2022/09/27 07:02:22;;;;;;;0.65;0.00;;;;;;;7.94;59.42;99322.47;4985086;28;20120;-68
2022/09/27 07:05:09;;;;;;;3.83;0.75;;;;;;;8.14;58.80;99311.81;4966649;28;20075;-67
2022/09/27 07:07:45;;;;;;;0.68;0.10;;;;;;;7.87;60.09;99316.75;5014334;28;20048;-68
2022/09/27 07:10:11;;;;;;;1.63;0.13;;;;;;;8.18;59.09;99311.63;5026375;28;20025;-68
2022/09/27 07:12:37;;;;;;;0.98;0.20;;;;;;;7.81;59.82;99314.47;4990926;28;20045;-68
2022/09/27 07:15:04;;;;;;;1.02;0.00;;;;;;;7.94;59.84;99332.88;5027770;28;20033;-68
2022/09/27 07:17:29;;;;;;;0.13;0.05;;;;;;;7.83;60.02;99332.59;5027806;28;20061;-67
2022/09/27 07:19:56;;;;;;;3.17;0.10;;;;;;;7.78;60.42;99326.78;5005486;28;20080;-68
2022/09/27 07:22:22;;;;;;;3.88;0.30;;;;;;;8.13;59.43;99341.34;5005308;28;20534;-68
2022/09/27 07:24:54;;;;;;;1.58;0.32;;;;;;;8.15;59.35;99336.91;5031822;28;20033;-68
2022/09/27 07:27:21;;;;;;;5.60;0.30;;;;;;;8.19;59.21;99339.34;5012756;28;20049;-68
2022/09/27 07:29:47;;;;;;;0.35;0.00;;;;;;;7.98;59.50;99339.59;5010551;28;20030;-66
2022/09/27 07:32:12;;;;;;;0.93;0.10;;;;;;;8.11;59.11;99345.81;5010711;28;20045;-66
2022/09/27 07:34:38;;;;;;;3.03;0.20;;;;;;;8.45;58.33;99338.75;5006338;28;20099;-68
2022/09/27 07:37:04;;;;;;;4.53;0.10;;;;;;;8.05;59.08;99340.94;5012788;28;20052;-66
2022/09/27 07:39:35;;;;;;;0.77;0.20;;;;;;;7.98;59.55;99334.38;5031072;28;20093;-66
2022/09/27 07:42:01;;;;;;;0.50;0.10;;;;;;;8.36;58.61;99339.28;5006744;28;20062;-67
2022/09/27 07:44:27;;;;;;;2.58;0.10;;;;;;;8.36;58.66;99334.06;5013999;28;20026;-67
2022/09/27 07:47:15;;;;;;;3.90;0.10;;;;;;;8.61;58.50;99338.75;5002473;28;20158;-67
2022/09/27 07:49:59;;;;;;;1.45;0.00;;;;;;;8.30;58.86;99337.84;5008650;28;20144;-65
2022/09/27 07:52:42;;;;;;;2.33;0.20;;;;;;;8.30;58.71;99350.00;4992668;28;20048;-66
2022/09/27 07:55:41;;;;;;;2.15;0.00;;;;;;;8.85;57.85;99357.38;4980122;28;20034;-67
2022/09/27 07:58:19;;;;;;;3.00;1.15;;;;;;;8.63;57.68;99377.69;5005531;28;20395;-69
2022/09/27 08:00:45;;;;;;;2.38;0.35;;;;;;;8.41;58.18;99363.28;4996961;28;20026;-67
2022/09/27 08:03:14;;;;;;;1.10;0.30;;;;;;;8.28;58.87;99376.13;5022238;28;20041;-66
2022/09/27 08:05:42;;;;;;;0.55;0.00;;;;;;;8.50;58.39;99378.38;5012162;28;20037;-67
2022/09/27 08:08:08;;;;;;;1.05;0.10;;;;;;;8.54;58.08;99371.25;5011424;28;21120;-67
2022/09/27 08:10:34;;;;;;;0.75;0.20;;;;;;;8.38;58.60;99375.59;5008605;28;20034;-66
2022/09/27 08:13:04;;;;;;;3.08;0.30;;;;;;;8.09;59.47;99371.06;5010955;28;20046;-66
2022/09/27 08:15:30;;;;;;;2.45;0.45;;;;;;;8.49;58.79;99371.50;5008219;28;20029;-66
2022/09/27 08:17:56;;;;;;;1.10;0.10;;;;;;;8.63;57.95;99380.31;4989904;28;20160;-67
2022/09/27 08:20:41;;;;;;;1.20;0.10;;;;;;;8.70;58.13;99390.31;5007956;28;20755;-66
2022/09/27 08:23:24;;;;;;;;;;;;;;;8.50;58.24;99395.78;5009323;28;20048;-66
2022/09/27 08:26:03;;;;;;;2.15;0.10;;;;;;;8.40;58.71;99398.03;5006490;28;19916;-66
2022/09/27 08:28:50;;;;;;;1.95;0.10;;;;;;;8.43;59.12;99404.88;5009197;28;20096;-66
2022/09/27 08:31:18;;;;;;;4.28;0.20;;;;;;;8.68;58.24;99407.78;5011620;28;20068;-66
2022/09/27 08:33:49;;;;;;;2.50;0.22;;;;;;;8.62;58.56;99402.06;5025864;28;20676;-66
2022/09/27 08:36:14;;;;;;;3.65;0.20;;;;;;;8.84;57.97;99405.19;5012982;28;20108;-66
2022/09/27 08:38:39;;;;;;;2.30;0.10;;;;;;;8.68;57.70;99402.56;5003864;28;20123;-66
2022/09/27 08:41:15;;;;;;;0.70;0.10;;;;;;;8.75;57.81;99398.72;5012953;28;22672;-67
2022/09/27 08:43:50;;;;;;;1.05;0.10;;;;;;;8.77;56.58;99396.03;5025408;28;20054;-66
2022/09/27 08:46:57;;;;;;;1.80;0.00;;;;;;;8.78;57.44;99387.28;5008971;28;20030;-68
2022/09/27 08:49:31;;;;;;;0.60;0.10;;;;;;;8.59;57.34;99381.41;4991095;28;20037;-66
2022/09/27 08:51:59;;;;;;;0.95;0.10;;;;;;;8.68;57.67;99392.16;5014115;28;20037;-67
2022/09/27 08:54:29;;;;;;;0.60;0.10;;;;;;;8.61;58.25;99387.38;5026033;28;20030;-67
2022/09/27 08:57:05;;;;;;;0.60;0.00;;;;;;;9.08;56.76;99383.88;4988697;28;20066;-66
2022/09/27 08:59:41;;;;;;;1.60;0.20;;;;;;;8.93;57.89;99386.44;4989909;28;20090;-66
2022/09/27 09:02:18;;;;;;;5.25;0.80;;;;;;;9.56;57.06;99387.16;5008947;28;20068;-67
2022/09/27 09:04:51;;;;;;;1.15;0.38;;;;;;;9.82;56.13;99384.81;5004656;28;20095;-67
2022/09/27 09:07:45;;;;;;;0.82;0.10;;;;;;;9.99;55.06;99384.59;4995805;28;20041;-68
2022/09/27 09:13:45;;;;;;;0.95;0.20;;;;;;;10.12;54.91;99395.94;5004264;28;20088;-65
2022/09/27 09:16:37;;;;;;;2.40;0.10;;;;;;;10.60;54.48;99408.66;5011315;28;20069;-66
2022/09/27 09:19:41;;;;;;;3.40;0.10;;;;;;;9.61;56.50;99400.78;4960584;28;20076;-66
2022/09/27 09:22:37;;;;;;;5.07;0.20;;;;;;;10.60;55.73;99406.06;5007268;28;20045;-67
2022/09/27 09:25:16;;;;;;;9.45;0.10;;;;;;;10.65;54.80;99403.97;5024319;28;20033;-67
2022/09/27 09:28:06;;;;;;;1.58;0.32;;;;;;;10.85;54.55;99407.97;5032777;28;20229;-67
2022/09/27 09:30:41;;;;;;;4.05;0.30;;;;;;;10.53;54.40;99408.22;5029906;28;20034;-65
2022/09/27 09:33:30;;;;;;;2.25;0.10;;;;;;;10.73;55.18;99409.56;4991933;28;20529;-67
2022/09/27 09:36:02;;;;;;;5.40;0.40;;;;;;;11.32;53.58;99413.66;5006720;28;20093;-66
2022/09/27 09:38:34;;;;;;;1.58;0.28;;;;;;;11.19;51.75;99414.44;5009535;28;20530;-66
2022/09/27 09:41:10;;;;;;;3.00;0.10;;;;;;;10.21;52.40;99418.91;4994955;28;20026;-66
2022/09/27 09:43:51;;;;;;;0.28;0.00;;;;;;;10.68;52.76;99421.25;5009946;28;20090;-67
2022/09/27 09:46:24;;;;;;;2.50;0.10;;;;;;;11.21;51.69;99425.63;5020361;28;20026;-67
2022/09/27 09:49:03;;;;;;;0.30;0.10;;;;;;;11.28;51.40;99428.69;5002138;28;20323;-67
2022/09/27 09:51:39;;;;;;;0.88;0.00;;;;;;;11.63;50.38;99428.97;4994845;28;20037;-66
2022/09/27 09:54:18;;;;;;;3.75;0.65;;;;;;;11.76;49.34;99420.28;4988368;28;20049;-67
2022/09/27 09:56:50;;;;;;;0.90;0.00;;;;;;;11.73;50.64;99421.34;5009638;28;20041;-67
2022/09/27 09:59:34;;;;;;;3.47;0.10;;;;;;;12.45;48.79;99423.38;5011473;28;20037;-67
2022/09/27 10:02:27;;;;;;;6.80;3.28;;;;;;;12.01;51.17;99414.22;5003782;28;20786;-70
2022/09/27 10:04:57;;;;;;;3.15;0.10;;;;;;;12.68;48.64;99404.22;5027788;28;20096;-68
2022/09/27 10:07:25;;;;;;;1.73;0.20;;;;;;;12.69;48.91;99415.56;4993837;28;20517;-67
2022/09/27 10:09:54;;;;;;;3.08;0.10;;;;;;;11.97;50.36;99405.75;5007465;28;20032;-67
2022/09/27 10:12:43;;;;;;;1.90;0.10;;;;;;;11.72;48.52;99403.94;5009104;28;20053;-67
2022/09/27 10:15:15;;;;;;;3.72;0.30;;;;;;;11.56;50.07;99398.09;5005710;28;20057;-67
2022/09/27 10:17:43;;;;;;;;;;;;;;;11.40;50.37;99408.75;5005041;28;20046;-67
2022/09/27 10:20:35;;;;;;;4.05;0.30;;;;;;;11.73;49.74;99410.88;5006437;28;19921;-67
2022/09/27 10:23:12;;;;;;;0.35;0.00;;;;;;;11.79;50.13;99415.69;5004883;28;20116;-67
2022/09/27 10:26:03;;;;;;;2.85;0.20;;;;;;;13.31;49.85;99422.41;5010507;28;20034;-67
2022/09/27 10:28:44;;;;;;;1.40;0.45;;;;;;;14.26;45.09;99415.16;5005945;28;20053;-66
2022/09/27 10:31:14;;;;;;;0.65;0.10;;;;;;;14.70;44.38;99418.72;5001878;28;20026;-67
2022/09/27 10:34:04;;;;;;;0.22;0.00;;;;;;;14.49;42.51;99420.41;5005666;28;20075;-67
2022/09/27 10:36:35;;;;;;;4.70;0.32;;;;;;;14.93;43.36;99408.94;4998385;28;20021;-67
2022/09/27 10:39:04;;;;;;;0.85;0.10;;;;;;;15.05;41.64;99411.53;5006569;28;20545;-67
2022/09/27 10:41:40;;;;;;;0.90;0.00;;;;;;;14.56;43.30;99418.97;5010211;28;20030;-67
2022/09/27 10:44:15;;;;;;;3.45;0.10;;;;;;;13.65;45.18;99431.25;5004168;28;20048;-67
2022/09/27 10:46:43;;;;;;;1.30;0.00;;;;;;;12.43;44.78;99436.59;5011936;28;20350;-66
2022/09/27 10:49:31;;;;;;;0.70;0.10;;;;;;;11.10;46.64;99454.25;4991810;28;20045;-67
2022/09/27 10:52:02;;;;;;;0.13;0.00;;;;;;;9.85;48.88;99447.22;5000721;28;20091;-67
2022/09/27 10:54:31;;;;;;;1.85;0.00;;;;;;;10.08;50.43;99440.63;5006048;28;20041;-66
2022/09/27 10:57:03;;;;;;;0.00;0.00;;;;;;;8.97;53.70;99449.66;5025245;28;20450;-66
2022/09/27 10:59:30;;;;;;;;;;;;;;;9.28;53.13;99455.75;5010181;28;20037;-66
2022/09/27 11:01:57;;;;;;;0.55;0.10;;;;;;;9.32;53.80;99454.63;5012820;28;19916;-66
2022/09/27 11:04:35;;;;;;;0.77;0.00;;;;;;;8.98;53.86;99452.19;5010042;28;20596;-66
2022/09/27 11:07:06;;;;;;;3.25;0.10;;;;;;;9.12;54.01;99458.34;5013483;28;20229;-66
2022/09/27 11:09:43;;;;;;;0.68;0.10;;;;;;;8.82;55.04;99459.16;5009330;28;20107;-67
2022/09/27 11:12:11;;;;;;;0.47;0.00;;;;;;;9.11;54.44;99460.13;4995572;28;20046;-67
2022/09/27 11:14:38;;;;;;;0.75;0.00;;;;;;;9.67;54.23;99462.16;5026404;28;20033;-69
2022/09/27 11:17:30;;;;;;;0.73;0.00;;;;;;;10.24;54.06;99454.44;5013693;28;20464;-67
2022/09/27 11:20:24;;;;;;;1.75;0.10;;;;;;;11.17;53.66;99454.72;4998944;28;20060;-66
2022/09/27 11:23:18;;;;;;;0.93;0.00;;;;;;;12.19;52.08;99457.47;5013312;28;20053;-67
2022/09/27 11:26:08;;;;;;;0.90;0.20;;;;;;;12.44;49.55;99458.38;4998167;28;20030;-67
2022/09/27 11:28:37;;;;;;;0.43;0.08;;;;;;;12.34;48.08;99458.19;5007199;28;20076;-67
2022/09/27 11:31:06;;;;;;;2.22;0.00;;;;;;;11.61;49.42;99459.63;5007940;28;20220;-67
2022/09/27 11:34:00;;;;;;;0.08;0.00;;;;;;;11.29;49.83;99461.78;5007597;28;20521;-66
2022/09/27 11:36:46;;;;;;;0.20;0.00;;;;;;;10.51;51.63;99461.50;5015625;28;20112;-67
2022/09/27 11:39:22;;;;;;;1.85;0.10;;;;;;;10.24;52.03;99461.44;5002938;28;20042;-67
2022/09/27 11:42:15;;;;;;;0.70;0.05;;;;;;;10.13;52.50;99462.09;5007925;28;20202;-67
2022/09/27 11:45:18;;;;;;;1.05;0.30;;;;;;;10.12;52.42;99453.38;5011283;28;20065;-66
2022/09/27 11:48:06;;;;;;;1.10;0.20;;;;;;;10.18;54.04;99458.25;5007052;28;20439;-67
2022/09/27 11:50:55;;;;;;;2.63;0.10;;;;;;;9.87;54.52;99455.81;4998437;28;20728;-67
2022/09/27 11:53:49;;;;;;;0.32;0.10;;;;;;;9.48;54.92;99445.00;4994429;28;20251;-67
2022/09/27 11:56:49;;;;;;;0.32;0.10;;;;;;;10.09;55.16;99448.38;4969833;28;20045;-67
2022/09/27 11:59:21;;;;;;;0.50;0.25;;;;;;;10.33;55.51;99442.59;5006700;28;20069;-67
2022/09/27 12:01:54;;;;;;;;;;;;;;;10.31;54.65;99444.44;5030016;28;20063;-67
2022/09/27 12:04:32;;;;;;;0.77;0.35;;;;;;;10.64;53.05;99452.78;5013498;28;19913;-67
2022/09/27 12:07:34;;;;;;;0.50;0.00;;;;;;;10.62;52.17;99446.81;4996449;28;20053;-67
2022/09/27 12:10:08;;;;;;;2.65;0.05;;;;;;;11.43;51.50;99451.22;4972886;28;20060;-67
2022/09/27 12:12:36;;;;;;;0.57;0.08;;;;;;;11.80;51.97;99442.75;5009972;28;20519;-67
2022/09/27 12:15:29;;;;;;;0.93;0.10;;;;;;;12.60;47.15;99447.66;5006747;28;20037;-67
2022/09/27 12:18:04;;;;;;;0.50;0.10;;;;;;;13.17;47.19;99451.47;4994305;28;20118;-67
2022/09/27 12:20:34;;;;;;;1.85;0.00;;;;;;;13.53;45.73;99443.47;5008825;28;20037;-67
2022/09/27 12:23:14;;;;;;;0.73;0.00;;;;;;;13.65;45.27;99451.41;5005880;28;20037;-67
2022/09/27 12:25:57;;;;;;;1.40;0.00;;;;;;;13.97;43.00;99440.25;5011377;28;20052;-67
2022/09/27 12:28:42;;;;;;;0.20;0.00;;;;;;;13.92;45.75;99454.56;4995227;28;20104;-67